Time;durP1;ratioP1;P1;durP2;ratioP2;P2;SDS_P1;SDS_P2;PMS_P1;PMS_P2;Temp;Humidity;BMP_temperature;BMP_pressure;BME280_temperature;BME280_humidity;BME280_pressure;Samples;Min_cycle;Max_cycle;Signal;HPM_P1;HPM_P2
2022/11/07 00:01:50;;;;;;;20.80;14.90;;;7.50;1.00;;;;;;5028086;28;20394;-86
2022/11/07 00:04:18;;;;;;;20.50;12.50;;;7.50;1.00;;;;;;5018355;28;20231;-84
2022/11/07 00:06:46;;;;;;;21.45;13.13;;;7.50;1.00;;;;;;5021814;28;20254;-86
2022/11/07 00:09:15;;;;;;;22.10;14.00;;;7.50;1.00;;;;;;5031672;28;20762;-86
2022/11/07 00:11:44;;;;;;;21.08;13.75;;;7.50;1.00;;;;;;5007551;28;20240;-86
2022/11/07 00:14:12;;;;;;;19.65;14.43;;;7.50;1.00;;;;;;5046875;28;21139;-86
2022/11/07 00:16:40;;;;;;;21.10;15.05;;;7.50;1.00;;;;;;5005215;28;20230;-86
2022/11/07 00:19:11;;;;;;;22.27;14.13;;;7.60;1.00;;;;;;5025988;28;20230;-87
2022/11/07 00:21:41;;;;;;;19.92;13.88;;;7.50;1.00;;;;;;5033941;28;20223;-88
2022/11/07 00:24:09;;;;;;;20.58;13.35;;;7.50;1.00;;;;;;5034492;28;20296;-85
2022/11/07 00:26:40;;;;;;;20.13;14.32;;;7.60;1.00;;;;;;5033989;28;20247;-89
2022/11/07 00:29:07;;;;;;;22.38;13.43;;;7.60;1.00;;;;;;5016314;28;20266;-87
2022/11/07 00:31:35;;;;;;;20.90;14.60;;;7.60;1.00;;;;;;5027796;28;20718;-88
2022/11/07 00:34:02;;;;;;;20.55;14.45;;;7.50;1.00;;;;;;5041115;28;20223;-87
2022/11/07 00:36:29;;;;;;;20.85;14.15;;;7.50;1.00;;;;;;5027803;28;20812;-84
2022/11/07 00:39:07;;;;;;;22.50;13.95;;;7.50;1.00;;;;;;5039272;28;20241;-87
2022/11/07 00:41:34;;;;;;;22.20;14.50;;;7.40;1.00;;;;;;5026938;28;20265;-89
2022/11/07 00:44:02;;;;;;;22.92;14.70;;;7.40;1.00;;;;;;5015338;28;20240;-88
2022/11/07 00:46:29;;;;;;;21.50;14.80;;;7.30;1.00;;;;;;5000683;28;20240;-87
2022/11/07 00:49:00;;;;;;;22.90;15.70;;;7.30;1.00;;;;;;4999639;28;20323;-87
2022/11/07 00:51:28;;;;;;;20.88;14.68;;;7.30;1.00;;;;;;5013559;28;20247;-87
2022/11/07 00:54:02;;;;;;;23.00;15.30;;;7.30;1.00;;;;;;5022564;28;20237;-87
2022/11/07 00:56:29;;;;;;;22.35;15.25;;;7.20;1.00;;;;;;5029916;28;20331;-87
2022/11/07 00:58:57;;;;;;;25.10;15.80;;;7.20;1.00;;;;;;5026280;28;20245;-88
2022/11/07 01:01:26;;;;;;;22.77;13.93;;;7.20;1.00;;;;;;5027245;28;20224;-87
2022/11/07 01:06:40;;;;;;;22.08;15.27;;;7.20;1.00;;;;;;5022787;28;20287;-88
2022/11/07 01:09:10;;;;;;;20.52;14.27;;;7.20;1.00;;;;;;5027910;28;20242;-86
2022/11/07 01:11:39;;;;;;;21.77;15.05;;;7.30;1.00;;;;;;5023584;28;20284;-86
2022/11/07 01:14:07;;;;;;;20.95;13.73;;;7.20;1.00;;;;;;5005250;28;20285;-87
2022/11/07 01:16:37;;;;;;;23.80;15.80;;;7.20;1.00;;;;;;5025507;28;20247;-87
2022/11/07 01:19:05;;;;;;;23.42;14.88;;;7.20;1.00;;;;;;5027529;28;20243;-89
2022/11/07 01:21:32;;;;;;;23.58;14.80;;;7.20;1.00;;;;;;5025651;28;20294;-86
2022/11/07 01:24:02;;;;;;;21.95;14.88;;;7.20;1.00;;;;;;5026195;28;20240;-87
2022/11/07 01:26:31;;;;;;;24.10;15.88;;;7.20;1.00;;;;;;5028587;28;20270;-88
2022/11/07 01:29:00;;;;;;;19.98;13.98;;;7.20;1.00;;;;;;5029075;28;20278;-87
2022/11/07 01:31:30;;;;;;;21.58;14.27;;;7.20;1.00;;;;;;5025884;28;20292;-87
2022/11/07 01:33:59;;;;;;;21.02;13.98;;;7.20;1.00;;;;;;5022573;28;20235;-86
2022/11/07 01:36:34;;;;;;;21.30;13.65;;;7.20;1.00;;;;;;5011761;28;20290;-85
2022/11/07 01:39:01;;;;;;;22.27;15.05;;;7.20;1.00;;;;;;5024231;28;20235;-85
2022/11/07 01:41:30;;;;;;;21.70;14.45;;;7.20;1.00;;;;;;5006230;28;21093;-87
2022/11/07 01:44:00;;;;;;;23.00;14.43;;;7.20;1.00;;;;;;5020990;28;20239;-87
2022/11/07 01:46:31;;;;;;;21.10;14.00;;;7.20;1.00;;;;;;5021011;28;20296;-90
2022/11/07 01:49:10;;;;;;;20.73;14.13;;;7.30;1.00;;;;;;5020332;28;20240;-88
2022/11/07 01:51:43;;;;;;;22.73;14.65;;;7.20;1.00;;;;;;5022259;28;20244;-87
2022/11/07 01:54:12;;;;;;;20.17;13.40;;;7.20;1.00;;;;;;5025014;28;20252;-87
2022/11/07 01:56:46;;;;;;;21.02;14.23;;;7.20;1.00;;;;;;5025205;28;20229;-87
2022/11/07 01:59:17;;;;;;;20.13;13.18;;;7.20;1.00;;;;;;5021921;28;20235;-88
2022/11/07 02:01:43;;;;;;;21.73;13.40;;;7.10;1.00;;;;;;5021437;28;20268;-87
2022/11/07 02:04:13;;;;;;;20.75;13.63;;;7.10;1.00;;;;;;5021579;28;20236;-88
2022/11/07 02:06:46;;;;;;;21.33;14.50;;;7.20;1.00;;;;;;5026035;28;21056;-84
2022/11/07 02:09:16;;;;;;;21.20;14.85;;;7.20;1.00;;;;;;5022930;28;20378;-87
2022/11/07 02:11:43;;;;;;;20.70;14.00;;;7.20;1.00;;;;;;5023499;28;20291;-88
2022/11/07 02:14:15;;;;;;;21.30;13.85;;;7.30;1.00;;;;;;5023860;28;20455;-87
2022/11/07 02:16:45;;;;;;;22.38;12.90;;;7.30;1.00;;;;;;5021750;28;20739;-87
2022/11/07 02:19:24;;;;;;;20.25;13.60;;;7.30;1.00;;;;;;5009242;28;20239;-88
2022/11/07 02:21:58;;;;;;;20.98;14.07;;;7.30;1.00;;;;;;5023191;28;20238;-87
2022/11/07 02:24:31;;;;;;;20.50;14.30;;;7.30;1.00;;;;;;5028917;28;20245;-86
2022/11/07 02:27:00;;;;;;;23.42;14.30;;;7.30;1.00;;;;;;5025893;28;25382;-87
2022/11/07 02:29:27;;;;;;;20.15;13.80;;;7.30;1.00;;;;;;5014397;28;20241;-84
2022/11/07 02:32:01;;;;;;;21.10;14.48;;;7.40;1.00;;;;;;5015730;28;21270;-88
2022/11/07 02:34:28;;;;;;;19.00;12.57;;;7.40;1.00;;;;;;5015979;28;20239;-85
2022/11/07 02:36:55;;;;;;;19.50;12.45;;;7.40;1.00;;;;;;5017300;28;20239;-86
2022/11/07 02:39:22;;;;;;;17.92;12.25;;;7.40;1.00;;;;;;5004837;28;20251;-85
2022/11/07 02:41:51;;;;;;;18.30;13.38;;;7.40;1.00;;;;;;5006369;28;20254;-88
2022/11/07 02:44:25;;;;;;;21.67;13.45;;;7.40;1.00;;;;;;5019321;28;20239;-87
2022/11/07 02:46:52;;;;;;;19.30;13.18;;;7.40;1.00;;;;;;5008524;28;20245;-83
2022/11/07 02:49:19;;;;;;;18.80;13.35;;;7.40;1.00;;;;;;5016942;28;20240;-87
2022/11/07 02:51:47;;;;;;;17.65;12.77;;;7.50;1.00;;;;;;5014785;28;20235;-88
2022/11/07 02:54:14;;;;;;;19.90;13.55;;;7.50;1.00;;;;;;5022293;28;20223;-87
2022/11/07 02:56:41;;;;;;;21.20;14.13;;;7.50;1.00;;;;;;5022645;28;20276;-85
2022/11/07 02:59:09;;;;;;;18.55;13.50;;;7.60;1.00;;;;;;5023253;28;20337;-88
2022/11/07 03:01:36;;;;;;;21.55;13.05;;;7.70;1.00;;;;;;5025439;28;20225;-90
2022/11/07 03:04:03;;;;;;;20.08;13.07;;;7.70;1.00;;;;;;5024548;28;20242;-89
2022/11/07 03:06:30;;;;;;;20.75;13.73;;;7.70;1.00;;;;;;5026803;28;20244;-87
2022/11/07 03:08:57;;;;;;;17.88;12.95;;;7.80;1.00;;;;;;5020475;28;20236;-87
2022/11/07 03:11:27;;;;;;;21.63;13.40;;;7.80;1.00;;;;;;5027351;28;20236;-88
2022/11/07 03:13:55;;;;;;;18.10;12.65;;;7.90;1.00;;;;;;5031197;28;20243;-87
2022/11/07 03:16:23;;;;;;;18.30;12.30;;;8.00;1.00;;;;;;5020278;28;20739;-87
2022/11/07 03:18:50;;;;;;;18.27;12.77;;;8.10;1.00;;;;;;5026257;28;20299;-87
2022/11/07 03:21:18;;;;;;;18.77;12.70;;;8.20;1.00;;;;;;5026099;28;20248;-88
2022/11/07 03:23:45;;;;;;;20.23;13.10;;;8.30;1.00;;;;;;5024384;28;21934;-89
2022/11/07 03:26:12;;;;;;;17.30;11.97;;;8.40;1.00;;;;;;5028290;28;20465;-88
2022/11/07 03:28:39;;;;;;;17.35;12.05;;;8.40;1.00;;;;;;5024533;28;21322;-82
2022/11/07 03:31:06;;;;;;;17.00;11.75;;;8.40;1.00;;;;;;5027433;28;20241;-87
2022/11/07 03:33:34;;;;;;;16.33;11.32;;;8.50;1.00;;;;;;5017709;28;20253;-86
2022/11/07 03:36:01;;;;;;;17.60;11.93;;;8.50;1.00;;;;;;5021864;28;20264;-87
2022/11/07 03:38:28;;;;;;;18.17;11.63;;;8.50;1.00;;;;;;5026842;28;21111;-87
2022/11/07 03:40:55;;;;;;;17.70;10.60;;;8.50;1.00;;;;;;5027451;28;20429;-88
2022/11/07 03:43:24;;;;;;;16.80;11.00;;;8.60;1.00;;;;;;5030353;28;20470;-88
2022/11/07 03:45:51;;;;;;;15.63;10.77;;;8.60;1.00;;;;;;5024784;28;20448;-87
2022/11/07 03:48:21;;;;;;;17.65;13.20;;;8.70;1.00;;;;;;5032543;28;20591;-89
2022/11/07 03:50:49;;;;;;;15.97;10.10;;;8.70;1.00;;;;;;5020446;28;20243;-84
2022/11/07 03:53:17;;;;;;;16.50;10.70;;;8.80;1.00;;;;;;5023200;28;20424;-88
2022/11/07 03:55:46;;;;;;;15.40;10.10;;;8.80;1.00;;;;;;5028054;28;20512;-87
2022/11/07 03:58:13;;;;;;;16.63;10.87;;;8.90;1.00;;;;;;5026553;28;20561;-88
2022/11/07 04:00:40;;;;;;;15.63;9.47;;;9.00;1.00;;;;;;5025628;28;20439;-82
2022/11/07 04:03:08;;;;;;;15.27;10.37;;;8.90;1.00;;;;;;5025547;28;20466;-88
2022/11/07 04:05:35;;;;;;;16.70;9.57;;;8.90;1.00;;;;;;5023266;28;20490;-90
2022/11/07 04:08:03;;;;;;;15.40;9.87;;;9.00;1.00;;;;;;5017738;28;20251;-88
2022/11/07 04:10:31;;;;;;;14.33;9.07;;;9.00;1.00;;;;;;5026557;28;20445;-85
2022/11/07 04:18:30;;;;;;;13.35;9.02;;;9.10;1.00;;;;;;5030392;28;20510;-89
2022/11/07 04:21:00;;;;;;;13.38;9.50;;;9.20;1.00;;;;;;5025082;28;20232;-90
2022/11/07 04:23:29;;;;;;;12.77;8.90;;;9.20;1.00;;;;;;5030387;28;20248;-88
2022/11/07 04:28:43;;;;;;;15.47;11.07;;;9.10;1.00;;;;;;5023666;28;20425;-89
2022/11/07 04:31:10;;;;;;;16.13;9.77;;;9.10;1.00;;;;;;5030330;28;20503;-88
2022/11/07 04:33:37;;;;;;;13.97;8.67;;;9.20;1.00;;;;;;5024779;28;20424;-88
2022/11/07 04:36:04;;;;;;;13.63;8.88;;;9.10;1.00;;;;;;5019465;28;20463;-88
2022/11/07 04:38:33;;;;;;;14.73;9.15;;;9.20;1.00;;;;;;5027598;28;20745;-87
2022/11/07 04:41:00;;;;;;;12.77;8.67;;;9.30;1.00;;;;;;5034833;28;20234;-87
2022/11/07 04:43:30;;;;;;;14.20;8.10;;;9.30;1.00;;;;;;5026944;28;20496;-87
2022/11/07 04:45:57;;;;;;;12.37;8.07;;;9.30;1.00;;;;;;5021102;28;20444;-88
2022/11/07 04:48:24;;;;;;;12.57;9.00;;;9.30;1.00;;;;;;5020659;28;20430;-89
2022/11/07 04:50:51;;;;;;;13.73;8.98;;;9.40;1.00;;;;;;5027294;28;20552;-87
2022/11/07 04:53:20;;;;;;;12.77;8.68;;;9.30;1.00;;;;;;5029057;28;20217;-88
2022/11/07 04:55:49;;;;;;;15.63;9.20;;;9.40;1.00;;;;;;5016171;28;20385;-86
2022/11/07 04:58:16;;;;;;;12.27;8.20;;;9.40;1.00;;;;;;5026777;28;20470;-88
2022/11/07 05:00:44;;;;;;;12.77;8.57;;;9.40;1.00;;;;;;5006328;28;20428;-86
2022/11/07 05:03:11;;;;;;;14.17;8.67;;;9.40;1.00;;;;;;5015598;28;20418;-87
2022/11/07 05:05:48;;;;;;;13.17;8.60;;;9.40;1.00;;;;;;5012562;28;20482;-87
2022/11/07 05:08:14;;;;;;;12.40;8.13;;;9.40;1.00;;;;;;5001343;28;20439;-85
2022/11/07 05:10:43;;;;;;;14.00;8.57;;;9.40;1.00;;;;;;5004418;28;20431;-83
2022/11/07 05:13:14;;;;;;;13.30;8.10;;;9.50;1.00;;;;;;5005548;28;20515;-79
2022/11/07 05:15:44;;;;;;;12.47;8.50;;;9.40;1.00;;;;;;5008137;28;20436;-82
2022/11/07 05:18:14;;;;;;;12.50;8.10;;;9.50;1.00;;;;;;5005579;28;20441;-78
2022/11/07 05:20:45;;;;;;;13.73;8.00;;;9.50;1.00;;;;;;5007293;28;20534;-79
2022/11/07 05:23:11;;;;;;;14.40;7.97;;;9.50;1.00;;;;;;5017293;28;20559;-80
2022/11/07 05:25:45;;;;;;;13.50;8.73;;;9.50;1.00;;;;;;5035268;28;20229;-79
2022/11/07 05:28:21;;;;;;;14.63;8.97;;;9.50;1.00;;;;;;5012996;28;20409;-85
2022/11/07 05:30:54;;;;;;;11.50;7.75;;;9.50;1.00;;;;;;5015374;28;20469;-88
2022/11/07 05:33:24;;;;;;;13.03;8.37;;;9.50;1.00;;;;;;5004425;28;20295;-86
2022/11/07 05:35:52;;;;;;;11.77;7.43;;;9.50;1.00;;;;;;5018424;28;20445;-83
2022/11/07 05:38:21;;;;;;;13.57;8.90;;;9.50;1.00;;;;;;5023890;28;20548;-79
2022/11/07 05:40:53;;;;;;;15.30;11.03;;;9.50;1.00;;;;;;4997975;28;21212;-82
2022/11/07 05:43:23;;;;;;;13.60;8.23;;;9.50;1.00;;;;;;5035964;28;20992;-81
2022/11/07 05:45:58;;;;;;;13.23;7.90;;;9.60;1.00;;;;;;5021755;28;20540;-83
2022/11/07 05:48:32;;;;;;;11.40;7.67;;;9.60;1.00;;;;;;5017415;28;20464;-83
2022/11/07 05:51:02;;;;;;;12.10;7.13;;;9.60;1.00;;;;;;4998978;28;20502;-82
2022/11/07 05:53:29;;;;;;;14.53;8.57;;;9.60;1.00;;;;;;5021834;28;20521;-81
2022/11/07 05:55:56;;;;;;;12.07;7.43;;;9.60;1.00;;;;;;5017373;28;20448;-82
2022/11/07 05:58:27;;;;;;;12.68;7.60;;;9.60;1.00;;;;;;5020742;28;20900;-81
2022/11/07 06:00:54;;;;;;;13.50;7.93;;;9.50;1.00;;;;;;5024721;28;20233;-83
2022/11/07 06:03:23;;;;;;;15.07;8.23;;;9.50;1.00;;;;;;5007192;28;20605;-82
2022/11/07 06:05:52;;;;;;;12.47;7.83;;;9.60;1.00;;;;;;5018364;28;21466;-82
2022/11/07 06:08:18;;;;;;;12.23;7.50;;;9.60;1.00;;;;;;5017280;28;20455;-78
2022/11/07 06:10:47;;;;;;;12.27;7.60;;;9.60;1.00;;;;;;5022530;28;20528;-84
2022/11/07 06:13:15;;;;;;;13.10;7.70;;;9.60;1.00;;;;;;5026039;28;20457;-82
2022/11/07 06:15:45;;;;;;;11.10;7.17;;;9.60;1.00;;;;;;5020042;28;20471;-84
2022/11/07 06:18:14;;;;;;;14.97;7.93;;;9.60;1.00;;;;;;5016334;28;21048;-83
2022/11/07 06:20:45;;;;;;;10.80;7.07;;;9.60;1.00;;;;;;5017613;28;20553;-83
2022/11/07 06:23:11;;;;;;;11.77;7.57;;;9.60;1.00;;;;;;4996991;28;20970;-84
2022/11/07 06:25:40;;;;;;;11.37;6.93;;;9.60;1.00;;;;;;5012943;28;21129;-87
2022/11/07 06:28:09;;;;;;;13.33;9.90;;;9.60;1.00;;;;;;5022268;28;20470;-85
2022/11/07 06:30:53;;;;;;;12.00;7.13;;;9.70;1.00;;;;;;5009826;28;22267;-87
2022/11/07 06:33:24;;;;;;;11.90;7.43;;;9.60;1.00;;;;;;5018986;28;20487;-85
2022/11/07 06:35:54;;;;;;;11.40;6.82;;;9.60;1.00;;;;;;5021727;28;20519;-82
2022/11/07 06:38:25;;;;;;;12.18;7.35;;;9.60;1.00;;;;;;5024456;28;20296;-83
2022/11/07 06:40:51;;;;;;;12.13;7.80;;;9.60;1.00;;;;;;5024214;28;20316;-84
2022/11/07 06:43:34;;;;;;;11.82;7.05;;;9.60;1.00;;;;;;5015463;28;20448;-85
2022/11/07 06:46:16;;;;;;;11.10;6.80;;;9.60;1.00;;;;;;5005303;28;20247;-85
2022/11/07 06:48:43;;;;;;;11.53;7.00;;;9.60;1.00;;;;;;4989548;28;20427;-84
2022/11/07 06:51:15;;;;;;;14.20;8.00;;;9.60;1.00;;;;;;5021954;28;21333;-86
2022/11/07 06:53:42;;;;;;;11.60;7.50;;;9.70;1.00;;;;;;5013371;28;20432;-87
2022/11/07 06:56:25;;;;;;;13.80;6.13;;;9.80;1.00;;;;;;5028582;28;20480;-84
2022/11/07 06:59:01;;;;;;;10.97;6.57;;;9.90;1.00;;;;;;5008590;28;20483;-83
2022/11/07 07:01:34;;;;;;;11.60;6.90;;;9.90;1.00;;;;;;5024341;28;20504;-86
2022/11/07 07:04:11;;;;;;;12.17;7.10;;;9.80;1.00;;;;;;5021645;28;20556;-84
2022/11/07 07:07:03;;;;;;;12.23;7.10;;;9.70;1.00;;;;;;5014219;28;21028;-85
2022/11/07 07:09:33;;;;;;;12.77;7.17;;;9.70;1.00;;;;;;5010352;28;20495;-84
2022/11/07 07:12:03;;;;;;;11.20;6.90;;;9.70;1.00;;;;;;4998432;28;20458;-84
2022/11/07 07:14:34;;;;;;;11.17;7.33;;;9.70;1.00;;;;;;5017301;28;20465;-83
2022/11/07 07:17:05;;;;;;;11.40;6.60;;;9.70;1.00;;;;;;5014670;28;20550;-84
2022/11/07 07:19:36;;;;;;;13.50;6.63;;;9.80;1.00;;;;;;5014497;28;20463;-83
2022/11/07 07:22:22;;;;;;;14.73;9.53;;;9.80;1.00;;;;;;5006473;28;20503;-84
2022/11/07 07:25:14;;;;;;;;;;;;;;;;;;;;;
2022/11/07 07:27:43;;;;;;;10.43;6.60;;;10.00;1.00;;;;;;5007919;28;42615;-82
2022/11/07 07:30:18;;;;;;;11.97;7.03;;;10.10;1.00;;;;;;5007117;28;20495;-85
2022/11/07 07:32:52;;;;;;;11.90;7.30;;;10.10;1.00;;;;;;5020774;28;21115;-85
2022/11/07 07:35:34;;;;;;;9.20;5.90;;;10.10;1.00;;;;;;5018960;28;20497;-85
2022/11/07 07:38:04;;;;;;;9.60;6.07;;;10.20;1.00;;;;;;5008539;28;20440;-84
2022/11/07 07:40:33;;;;;;;10.97;5.70;;;10.30;1.00;;;;;;5008706;28;21011;-85
2022/11/07 07:43:17;;;;;;;10.77;5.80;;;10.40;1.00;;;;;;5008570;28;20574;-85
2022/11/07 07:45:44;;;;;;;17.13;10.63;;;10.30;1.00;;;;;;5010203;28;20428;-85
2022/11/07 07:48:15;;;;;;;9.87;5.47;;;10.40;1.00;;;;;;5031213;28;20515;-86
2022/11/07 07:50:42;;;;;;;9.43;5.00;;;10.50;1.00;;;;;;5016884;28;20447;-87
2022/11/07 07:53:13;;;;;;;10.50;5.00;;;10.60;1.00;;;;;;5019767;28;20547;-86
2022/11/07 07:55:44;;;;;;;9.00;5.07;;;10.60;1.00;;;;;;5012618;28;20452;-89
2022/11/07 07:58:15;;;;;;;9.93;4.70;;;10.50;1.00;;;;;;5019043;28;20469;-88
2022/11/07 08:00:45;;;;;;;9.13;5.30;;;10.60;1.00;;;;;;5025426;28;20463;-87
2022/11/07 08:03:25;;;;;;;10.00;5.30;;;10.60;1.00;;;;;;5015417;28;20469;-88
2022/11/07 08:05:54;;;;;;;9.70;4.73;;;10.70;1.00;;;;;;5014886;28;20465;-88
2022/11/07 08:11:23;;;;;;;9.40;5.00;;;10.70;1.00;;;;;;4962719;28;20463;-87
2022/11/07 08:13:53;;;;;;;8.93;4.80;;;10.90;1.00;;;;;;5003775;28;20568;-87
2022/11/07 08:16:33;;;;;;;14.27;5.43;;;11.00;1.00;;;;;;5008003;28;21197;-88
2022/11/07 08:19:33;;;;;;;;;;;;;;;;;;;;;
2022/11/07 08:22:05;;;;;;;9.97;4.97;;;11.10;1.00;;;;;;5004842;28;39535;-87
2022/11/07 08:27:25;;;;;;;10.50;4.10;;;11.20;1.00;;;;;;5024384;28;20542;-88
2022/11/07 08:29:56;;;;;;;9.77;4.70;;;11.10;1.00;;;;;;5008049;28;20503;-89
2022/11/07 08:32:23;;;;;;;9.37;4.53;;;11.00;1.00;;;;;;5018075;28;20433;-89
2022/11/07 08:34:54;;;;;;;8.30;4.13;;;11.10;1.00;;;;;;5013070;28;20452;-90
2022/11/07 08:37:25;;;;;;;8.57;4.10;;;11.10;1.00;;;;;;5020189;28;20478;-88
2022/11/07 08:39:55;;;;;;;13.30;4.33;;;11.20;1.00;;;;;;5013950;28;20449;-87
2022/11/07 08:42:23;;;;;;;7.70;4.30;;;11.20;1.00;;;;;;5021175;28;20432;-88
2022/11/07 08:45:04;;;;;;;9.07;4.33;;;11.30;1.00;;;;;;5031091;28;20576;-91
2022/11/07 08:47:34;;;;;;;9.90;4.40;;;11.40;1.00;;;;;;5025471;28;20464;-89
2022/11/07 08:50:12;;;;;;;8.63;4.33;;;11.50;1.00;;;;;;5024130;28;20459;-86
2022/11/07 08:52:43;;;;;;;9.93;4.13;;;11.80;1.00;;;;;;5017336;28;20428;-88
2022/11/07 08:55:13;;;;;;;10.07;4.40;;;11.90;1.00;;;;;;5018647;28;20474;-86
2022/11/07 08:57:53;;;;;;;9.27;3.57;;;12.30;1.00;;;;;;5019797;28;20479;-84
2022/11/07 09:00:23;;;;;;;10.80;4.23;;;12.50;1.00;;;;;;5009514;28;20527;-88
2022/11/07 09:03:12;;;;;;;8.77;3.70;;;12.60;1.00;;;;;;5012354;28;20453;-88
2022/11/07 09:05:50;;;;;;;10.87;5.33;;;12.60;1.00;;;;;;5006383;28;20455;-86
2022/11/07 09:11:07;;;;;;;9.03;4.03;;;12.50;1.00;;;;;;4990344;28;20804;-86
2022/11/07 09:13:35;;;;;;;7.20;3.37;;;12.50;1.00;;;;;;4993570;28;20458;-87
2022/11/07 09:16:05;;;;;;;7.40;3.00;;;12.50;1.00;;;;;;4990319;28;20461;-87
2022/11/07 09:18:37;;;;;;;6.90;2.70;;;12.50;1.00;;;;;;5005645;28;21226;-88
2022/11/07 09:21:06;;;;;;;8.87;3.50;;;12.50;1.00;;;;;;4973223;28;20474;-85
2022/11/07 09:23:34;;;;;;;9.13;3.37;;;12.60;1.00;;;;;;4998164;28;20469;-85
2022/11/07 09:26:15;;;;;;;9.80;3.50;;;12.60;1.00;;;;;;4989455;28;20445;-89
2022/11/07 09:31:28;;;;;;;7.43;3.50;;;12.90;1.00;;;;;;5006316;28;20460;-88
2022/11/07 09:33:55;;;;;;;8.83;3.40;;;13.20;1.00;;;;;;4965656;28;20434;-87
2022/11/07 09:36:26;;;;;;;8.30;3.37;;;13.40;1.00;;;;;;4948014;28;20457;-89
2022/11/07 09:38:55;;;;;;;6.90;2.80;;;13.70;1.00;;;;;;4978301;28;20433;-91
2022/11/07 09:41:44;;;;;;;9.60;3.90;;;13.60;1.00;;;;;;4998487;28;20474;-86
2022/11/07 09:44:33;;;;;;;11.10;3.57;;;13.60;1.00;;;;;;5011470;28;20474;-88
2022/11/07 09:50:27;;;;;;;;;;;;;;;;;;;;;
2022/11/07 09:53:24;;;;;;;11.23;3.33;;;14.00;1.00;;;;;;4995626;28;42252;-88
2022/11/07 09:56:03;;;;;;;7.77;3.10;;;14.00;1.00;;;;;;4997250;28;20458;-87
2022/11/07 09:58:37;;;;;;;7.83;3.73;;;14.30;1.00;;;;;;5003527;28;20454;-90
2022/11/07 10:01:14;;;;;;;7.87;3.47;;;14.60;1.00;;;;;;4987520;28;20424;-89
2022/11/07 10:04:07;;;;;;;8.17;3.07;;;14.80;1.00;;;;;;4997598;28;20488;-84
2022/11/07 10:06:44;;;;;;;7.30;3.07;;;14.80;1.00;;;;;;5001904;28;20450;-89
2022/11/07 10:09:25;;;;;;;9.07;2.63;;;14.80;1.00;;;;;;4993615;28;21003;-86
2022/11/07 10:12:14;;;;;;;6.60;2.60;;;14.80;1.00;;;;;;4989039;28;20463;-86
2022/11/07 10:15:07;;;;;;;;;;;;;;;;;;;;;
2022/11/07 10:18:03;;;;;;;6.53;2.50;;;15.50;1.00;;;;;;5017249;28;41173;-88
2022/11/07 10:21:04;;;;;;;9.47;3.00;;;15.50;1.00;;;;;;5024774;28;20491;-91
2022/11/07 10:23:56;;;;;;;7.50;2.43;;;15.80;1.00;;;;;;5019933;28;20432;-90
2022/11/07 10:26:30;;;;;;;7.60;2.73;;;16.00;1.00;;;;;;5004465;28;20468;-86
2022/11/07 10:29:12;;;;;;;6.93;2.70;;;15.90;1.00;;;;;;4998024;28;20428;-89
2022/11/07 10:31:50;;;;;;;7.23;2.90;;;15.70;1.00;;;;;;5023854;28;20510;-85
2022/11/07 10:34:45;;;;;;;9.00;3.30;;;15.80;1.00;;;;;;5010019;28;20427;-90
2022/11/07 10:37:15;;;;;;;8.40;3.17;;;16.10;1.00;;;;;;5011861;28;20448;-90
2022/11/07 10:39:49;;;;;;;6.67;2.60;;;16.20;1.00;;;;;;4996699;28;20416;-89
2022/11/07 10:42:27;;;;;;;10.57;2.57;;;16.30;1.00;;;;;;5013380;28;20437;-88
2022/11/07 10:45:13;;;;;;;7.23;2.40;;;16.70;1.00;;;;;;4983284;28;20484;-88
2022/11/07 10:47:56;;;;;;;6.87;2.20;;;17.10;1.00;;;;;;5004718;28;20438;-89
2022/11/07 10:50:27;;;;;;;9.93;3.07;;;17.30;1.00;;;;;;5011836;28;20783;-87
2022/11/07 10:55:53;;;;;;;7.10;2.40;;;18.50;1.00;;;;;;4995192;28;21047;-83
2022/11/07 10:58:29;;;;;;;8.70;2.33;;;19.10;1.00;;;;;;5000353;28;20455;-86
2022/11/07 11:03:50;;;;;;;8.53;2.50;;;18.60;1.00;;;;;;4987959;28;20437;-86
2022/11/07 11:06:30;;;;;;;8.53;2.47;;;18.40;1.00;;;;;;5005899;28;20501;-89
2022/11/07 11:09:08;;;;;;;8.00;2.40;;;18.40;1.00;;;;;;4996528;28;20516;-89
2022/11/07 11:11:36;;;;;;;5.73;2.23;;;18.30;1.00;;;;;;5003774;28;20451;-88
2022/11/07 11:14:25;;;;;;;6.60;2.47;;;18.10;1.00;;;;;;4999015;28;20570;-88
2022/11/07 11:16:56;;;;;;;6.23;2.33;;;18.60;1.00;;;;;;4996755;28;20529;-86
2022/11/07 11:19:28;;;;;;;5.73;2.03;;;19.30;1.00;;;;;;5002108;28;20476;-85
2022/11/07 11:22:06;;;;;;;7.63;2.50;;;19.30;1.00;;;;;;4986348;28;20438;-86
2022/11/07 11:24:36;;;;;;;6.90;2.13;;;19.50;1.00;;;;;;5011648;28;20489;-86
2022/11/07 11:27:13;;;;;;;7.03;2.57;;;20.10;1.00;;;;;;4991362;28;20452;-86
2022/11/07 11:30:09;;;;;;;7.17;2.50;;;19.90;1.00;;;;;;5007649;28;20532;-84
2022/11/07 11:32:54;;;;;;;6.70;1.87;;;19.30;1.00;;;;;;5005167;28;20454;-84
2022/11/07 11:38:36;;;;;;;7.00;1.93;;;19.00;1.00;;;;;;5012660;28;20590;-84
2022/11/07 11:41:16;;;;;;;6.37;2.37;;;18.80;1.00;;;;;;5000080;28;20513;-86
2022/11/07 11:43:54;;;;;;;9.13;2.37;;;18.70;1.00;;;;;;5002841;28;20529;-85
2022/11/07 11:46:43;;;;;;;8.47;2.33;;;18.40;1.00;;;;;;5004965;28;20490;-85
2022/11/07 11:49:22;;;;;;;6.40;2.77;;;18.70;1.00;;;;;;4995056;28;20422;-85
2022/11/07 11:51:53;;;;;;;7.40;2.40;;;19.50;1.00;;;;;;5001638;28;20442;-85
2022/11/07 11:54:24;;;;;;;6.33;2.37;;;20.40;1.00;;;;;;5026351;28;20467;-87
2022/11/07 11:57:02;;;;;;;6.43;2.00;;;21.10;1.00;;;;;;5009503;28;20431;-88
2022/11/07 12:00:03;;;;;;;6.97;2.07;;;21.60;1.00;;;;;;5029789;28;20655;-89
2022/11/07 12:02:46;;;;;;;9.20;2.50;;;21.70;1.00;;;;;;5015796;28;21928;-89
2022/11/07 12:05:55;;;;;;;9.13;2.60;;;22.10;1.00;;;;;;5013949;28;20437;-86
2022/11/07 12:08:47;;;;;;;10.00;3.07;;;22.90;1.00;;;;;;4986976;28;20617;-90
2022/11/07 12:11:36;;;;;;;6.07;2.30;;;22.30;1.00;;;;;;4989131;28;21206;-88
2022/11/07 12:14:52;;;;;;;9.13;2.50;;;21.30;1.00;;;;;;5000925;28;21113;-88
2022/11/07 12:17:35;;;;;;;6.87;2.17;;;20.50;1.00;;;;;;4993918;28;20513;-87
2022/11/07 12:20:16;;;;;;;7.80;1.93;;;21.30;1.00;;;;;;4991503;28;20492;-85
2022/11/07 12:23:16;;;;;;;6.40;1.80;;;20.80;1.00;;;;;;4985800;28;20428;-85
2022/11/07 12:26:14;;;;;;;7.37;2.57;;;19.50;1.00;;;;;;5010675;28;20482;-88
2022/11/07 12:29:04;;;;;;;6.30;1.90;;;19.60;1.00;;;;;;5012931;28;20421;-85
2022/11/07 12:31:57;;;;;;;9.40;2.47;;;19.00;1.00;;;;;;5008817;28;20499;-85
2022/11/07 12:34:51;;;;;;;7.97;2.70;;;18.70;1.00;;;;;;5025291;28;20467;-86
2022/11/07 12:40:44;;;;;;;9.30;2.57;;;19.10;1.00;;;;;;5026440;28;20462;-86
2022/11/07 12:43:45;;;;;;;6.77;1.83;;;19.10;1.00;;;;;;4990873;28;20499;-83
2022/11/07 12:46:35;;;;;;;7.70;2.03;;;19.30;1.00;;;;;;5009172;28;20483;-81
2022/11/07 12:53:04;;;;;;;5.63;1.70;;;20.00;1.00;;;;;;5027923;28;20410;-88
2022/11/07 12:55:47;;;;;;;6.23;2.07;;;19.70;1.00;;;;;;4999412;28;20412;-89
2022/11/07 12:58:26;;;;;;;7.63;2.40;;;19.20;1.00;;;;;;5012869;28;20438;-88
2022/11/07 13:00:56;;;;;;;7.60;2.20;;;18.50;1.00;;;;;;5010787;28;20557;-88
2022/11/07 13:03:35;;;;;;;8.67;2.40;;;17.80;1.00;;;;;;5012202;28;20542;-88
2022/11/07 13:06:17;;;;;;;8.30;2.60;;;17.10;1.00;;;;;;4981677;28;20457;-86
2022/11/07 13:08:57;;;;;;;7.27;2.00;;;16.70;1.00;;;;;;5009794;28;20423;-87
2022/11/07 13:11:35;;;;;;;9.00;1.80;;;16.50;1.00;;;;;;4997365;28;20515;-86
2022/11/07 13:14:36;;;;;;;9.00;2.60;;;16.40;1.00;;;;;;5006221;28;20496;-86
2022/11/07 13:17:26;;;;;;;5.93;1.90;;;16.20;1.00;;;;;;4996559;28;20428;-85
2022/11/07 13:20:01;;;;;;;11.00;2.33;;;16.10;1.00;;;;;;5006265;28;20448;-87
2022/11/07 13:22:45;;;;;;;5.70;1.70;;;15.90;1.00;;;;;;5030130;28;20463;-87
2022/11/07 13:25:57;;;;;;;5.93;2.20;;;15.70;1.00;;;;;;5025317;28;20950;-86
2022/11/07 13:28:27;;;;;;;6.50;2.23;;;15.60;1.00;;;;;;5010668;28;20619;-86
2022/11/07 13:31:46;;;;;;;7.07;2.03;;;15.50;1.00;;;;;;5008588;28;20491;-89
2022/11/07 13:34:27;;;;;;;7.60;2.10;;;15.40;1.00;;;;;;4997431;28;20488;-81
2022/11/07 13:37:06;;;;;;;8.90;2.20;;;15.30;1.00;;;;;;4966626;28;20467;-83
2022/11/07 13:39:37;;;;;;;7.33;2.83;;;15.30;1.00;;;;;;4989130;28;20524;-82
2022/11/07 13:42:08;;;;;;;6.73;2.20;;;15.20;1.00;;;;;;4979290;28;20453;-82
2022/11/07 13:44:38;;;;;;;7.63;2.13;;;15.10;1.00;;;;;;4985726;28;20488;-84
2022/11/07 13:47:18;;;;;;;6.30;2.30;;;15.00;1.00;;;;;;4983164;28;20577;-80
2022/11/07 13:49:54;;;;;;;9.10;2.70;;;15.00;1.00;;;;;;4999525;28;20562;-87
2022/11/07 13:52:32;;;;;;;9.27;2.97;;;15.00;1.00;;;;;;5000831;28;20483;-81
2022/11/07 13:55:11;;;;;;;7.77;2.67;;;14.90;1.00;;;;;;5000912;28;20501;-85
2022/11/07 13:57:45;;;;;;;6.50;2.57;;;14.90;1.00;;;;;;5022216;28;20440;-84
2022/11/07 14:00:15;;;;;;;6.20;2.40;;;14.90;1.00;;;;;;5017274;28;20523;-81
2022/11/07 14:02:54;;;;;;;9.53;4.20;;;15.00;1.00;;;;;;5016786;28;20448;-84
2022/11/07 14:05:35;;;;;;;6.80;2.30;;;14.90;1.00;;;;;;5017384;28;20448;-88
2022/11/07 14:08:26;;;;;;;7.23;2.13;;;14.90;1.00;;;;;;5010558;28;20448;-83
2022/11/07 14:10:56;;;;;;;12.33;3.70;;;14.80;1.00;;;;;;5012693;28;20443;-89
2022/11/07 14:13:28;;;;;;;7.33;2.53;;;14.80;1.00;;;;;;5019043;28;20472;-81
2022/11/07 14:16:07;;;;;;;9.97;2.50;;;14.80;1.00;;;;;;5008494;28;21279;-83